createdAt,value
2022-08-03T00:00:23.269Z,0.00
2022-08-03T00:01:23.158Z,0.00
2022-08-03T00:02:23.175Z,0.00
2022-08-03T00:03:23.228Z,0.00
2022-08-03T00:04:23.173Z,0.00
2022-08-03T00:05:23.138Z,0.00
2022-08-03T00:06:23.112Z,0.00
2022-08-03T00:07:23.103Z,0.00
2022-08-03T00:08:23.168Z,0.00
2022-08-03T00:09:23.072Z,0.00
2022-08-03T00:10:23.053Z,0.00
2022-08-03T00:11:23.059Z,0.00
2022-08-03T00:12:23.030Z,0.00
2022-08-03T00:13:23.126Z,0.00
2022-08-03T00:14:23.134Z,0.00
2022-08-03T00:15:23.001Z,0.00
2022-08-03T00:16:23.038Z,0.00
2022-08-03T00:17:23.035Z,0.00
2022-08-03T00:18:23.008Z,0.00
2022-08-03T00:19:22.971Z,0.00
2022-08-03T00:20:22.956Z,0.00
2022-08-03T00:21:22.935Z,0.00
2022-08-03T00:22:22.959Z,0.00
2022-08-03T00:23:22.954Z,0.00
2022-08-03T00:24:22.939Z,0.00
2022-08-03T00:25:22.922Z,0.00
2022-08-03T00:26:22.936Z,0.00
2022-08-03T00:27:22.899Z,0.00
2022-08-03T00:28:22.897Z,0.00
2022-08-03T00:29:22.920Z,0.00
2022-08-03T00:30:22.911Z,0.00
2022-08-03T00:31:39.777Z,0.00
2022-08-03T00:32:24.704Z,0.00
2022-08-03T00:33:22.848Z,0.00
2022-08-03T00:34:29.827Z,0.00
2022-08-03T00:35:31.803Z,0.00
2022-08-03T00:36:22.829Z,0.00
2022-08-03T00:37:22.789Z,0.00
2022-08-03T00:38:22.807Z,0.00
2022-08-03T00:39:22.739Z,0.00
2022-08-03T00:40:22.777Z,0.00
2022-08-03T00:41:22.735Z,0.00
2022-08-03T00:42:22.753Z,0.00
2022-08-03T00:43:22.753Z,0.00
2022-08-03T00:44:22.812Z,0.00
2022-08-03T00:45:22.734Z,0.00
2022-08-03T00:46:22.745Z,0.00
2022-08-03T00:47:22.702Z,0.00
2022-08-03T00:48:33.174Z,0.00
2022-08-03T00:49:22.705Z,0.00
2022-08-03T00:50:22.703Z,0.00
2022-08-03T00:51:22.615Z,0.00
2022-08-03T00:52:22.922Z,0.00
2022-08-03T00:53:22.644Z,0.00
2022-08-03T00:54:22.682Z,0.00
2022-08-03T00:55:22.605Z,0.00
2022-08-03T00:56:22.582Z,0.00
2022-08-03T00:57:22.572Z,0.00
2022-08-03T00:58:22.567Z,0.00
2022-08-03T00:59:22.564Z,0.00
2022-08-03T01:00:22.898Z,0.00
2022-08-03T01:01:22.598Z,0.00
2022-08-03T01:02:22.500Z,0.00
2022-08-03T01:03:22.513Z,0.00
2022-08-03T01:04:22.478Z,0.00
2022-08-03T01:05:22.460Z,0.00
2022-08-03T01:06:22.470Z,0.00
2022-08-03T01:07:22.461Z,0.00
2022-08-03T01:08:22.454Z,0.00
2022-08-03T01:09:22.421Z,0.00
2022-08-03T01:10:22.478Z,0.00
2022-08-03T01:11:22.394Z,0.00
2022-08-03T01:12:22.395Z,0.00
2022-08-03T01:14:02.068Z,0.00
2022-08-03T01:14:22.409Z,0.00
2022-08-03T01:15:22.355Z,0.00
2022-08-03T01:16:22.364Z,0.00
2022-08-03T01:17:22.344Z,0.00
2022-08-03T01:18:22.343Z,0.00
2022-08-03T01:19:22.316Z,0.00
2022-08-03T01:20:22.321Z,0.00
2022-08-03T01:21:22.290Z,0.00
2022-08-03T01:22:22.288Z,0.00
2022-08-03T01:23:22.291Z,0.00
2022-08-03T01:24:22.266Z,0.00
2022-08-03T01:25:22.252Z,0.00
2022-08-03T01:26:22.241Z,0.00
2022-08-03T01:27:22.231Z,0.00
2022-08-03T01:28:22.243Z,0.00
2022-08-03T01:29:22.214Z,0.00
2022-08-03T01:30:22.206Z,0.00
2022-08-03T01:31:22.231Z,0.00
2022-08-03T01:33:02.686Z,0.00
2022-08-03T01:33:22.187Z,0.00
2022-08-03T01:34:22.156Z,0.00
2022-08-03T01:35:22.153Z,0.00
2022-08-03T01:36:22.142Z,0.00
2022-08-03T01:37:22.123Z,0.00
2022-08-03T01:38:22.142Z,0.00
2022-08-03T01:39:22.106Z,0.00
2022-08-03T01:40:22.094Z,0.00
2022-08-03T01:41:22.077Z,0.00
2022-08-03T01:42:22.073Z,0.00
2022-08-03T01:44:27.144Z,0.00
2022-08-03T01:44:34.961Z,0.00
2022-08-03T01:45:22.046Z,0.00
2022-08-03T01:46:22.032Z,0.00
2022-08-03T01:47:22.019Z,0.00
2022-08-03T01:48:22.026Z,0.00
2022-08-03T01:49:22.002Z,0.00
2022-08-03T01:50:21.987Z,0.00
2022-08-03T01:51:21.977Z,0.00
2022-08-03T01:52:21.982Z,0.00
2022-08-03T01:53:21.988Z,0.00
2022-08-03T01:54:21.946Z,0.00
2022-08-03T01:55:21.933Z,0.00
2022-08-03T01:56:21.928Z,0.00
2022-08-03T01:57:21.919Z,0.00
2022-08-03T01:59:32.275Z,0.00
2022-08-03T02:00:33.253Z,0.00
2022-08-03T02:02:29.075Z,0.00
2022-08-03T02:02:39.779Z,0.00
2022-08-03T02:03:33.242Z,0.00
2022-08-03T02:04:33.214Z,0.00
2022-08-03T02:05:33.218Z,0.00
2022-08-03T02:07:02.355Z,0.00
2022-08-03T02:07:33.198Z,0.00
2022-08-03T02:08:33.190Z,0.00
2022-08-03T02:09:33.191Z,0.00
2022-08-03T02:10:35.116Z,0.00
2022-08-03T02:11:33.145Z,0.00
2022-08-03T02:12:33.130Z,0.00
2022-08-03T02:13:33.147Z,0.00
2022-08-03T02:14:33.134Z,0.00
2022-08-03T02:15:33.141Z,0.00
2022-08-03T02:16:33.089Z,0.00
2022-08-03T02:17:38.541Z,0.00
2022-08-03T02:18:33.096Z,0.00
2022-08-03T02:19:35.783Z,0.00
2022-08-03T02:20:33.082Z,0.00
2022-08-03T02:21:56.468Z,0.00
2022-08-03T02:22:33.034Z,0.00
2022-08-03T02:23:33.069Z,0.00
2022-08-03T02:24:33.017Z,0.00
2022-08-03T02:25:33.015Z,0.00
2022-08-03T02:26:32.985Z,0.00
2022-08-03T02:27:32.988Z,0.00
2022-08-03T02:28:32.972Z,0.00
2022-08-03T02:29:39.262Z,0.00
2022-08-03T02:30:32.951Z,0.00
2022-08-03T02:31:32.938Z,0.00
2022-08-03T02:32:32.940Z,0.00
2022-08-03T02:33:32.919Z,0.00
2022-08-03T02:34:33.077Z,0.00
2022-08-03T02:35:32.897Z,0.00
2022-08-03T02:36:32.887Z,0.00
2022-08-03T02:37:32.887Z,0.00
2022-08-03T02:38:32.891Z,0.00
2022-08-03T02:39:32.865Z,0.00
2022-08-03T02:40:32.857Z,0.00
2022-08-03T02:41:32.855Z,0.00
2022-08-03T02:42:32.840Z,0.00
2022-08-03T02:43:39.192Z,0.00
2022-08-03T02:44:32.874Z,0.00
2022-08-03T02:45:32.793Z,0.00
2022-08-03T02:46:32.781Z,0.00
2022-08-03T02:47:53.212Z,0.00
2022-08-03T02:48:32.764Z,0.00
2022-08-03T02:49:51.075Z,0.00
2022-08-03T02:50:32.764Z,0.00
2022-08-03T02:51:32.768Z,0.00
2022-08-03T02:52:32.721Z,0.00
2022-08-03T02:53:32.721Z,0.00
2022-08-03T02:54:32.707Z,0.00
2022-08-03T02:55:32.698Z,0.00
2022-08-03T02:56:32.734Z,0.00
2022-08-03T02:57:32.668Z,0.00
2022-08-03T02:58:32.656Z,0.00
2022-08-03T02:59:32.677Z,0.00
2022-08-03T03:00:32.671Z,0.00
2022-08-03T03:01:32.789Z,0.00
2022-08-03T03:02:32.626Z,0.00
2022-08-03T03:03:35.289Z,0.00
2022-08-03T03:04:33.224Z,0.00
2022-08-03T03:05:53.693Z,0.00
2022-08-03T03:06:32.547Z,0.00
2022-08-03T03:07:39.108Z,0.00
2022-08-03T03:08:32.561Z,0.00
2022-08-03T03:09:41.844Z,0.00
2022-08-03T03:10:32.551Z,0.00
2022-08-03T03:11:32.484Z,0.00
2022-08-03T03:12:32.487Z,0.00
2022-08-03T03:13:32.451Z,0.00
2022-08-03T03:14:33.649Z,0.00
2022-08-03T03:15:32.449Z,0.00
2022-08-03T03:16:32.434Z,0.00
2022-08-03T03:17:32.426Z,0.00
2022-08-03T03:18:32.427Z,0.00
2022-08-03T03:19:32.419Z,0.00
2022-08-03T03:20:32.373Z,0.00
2022-08-03T03:21:32.369Z,0.00
2022-08-03T03:22:32.390Z,0.00
2022-08-03T03:23:32.346Z,0.00
2022-08-03T03:24:32.360Z,0.00
2022-08-03T03:25:32.341Z,0.00
2022-08-03T03:26:32.319Z,0.00
2022-08-03T03:27:32.313Z,0.00
2022-08-03T03:28:32.330Z,0.00
2022-08-03T03:29:32.312Z,0.00
2022-08-03T03:30:32.282Z,0.00
2022-08-03T03:31:32.269Z,0.00
2022-08-03T03:32:32.264Z,0.00
2022-08-03T03:33:32.273Z,0.00
2022-08-03T03:34:32.347Z,0.00
2022-08-03T03:35:38.737Z,0.00
2022-08-03T03:36:32.247Z,0.00
2022-08-03T03:37:32.193Z,0.00
2022-08-03T03:38:32.194Z,0.00
2022-08-03T03:39:32.213Z,0.00
2022-08-03T03:40:32.166Z,0.00
2022-08-03T03:41:33.876Z,0.00
2022-08-03T03:42:32.151Z,0.00
2022-08-03T03:43:32.141Z,0.00
2022-08-03T03:44:32.149Z,0.00
2022-08-03T03:45:32.130Z,0.00
2022-08-03T03:46:32.105Z,0.00
2022-08-03T03:47:32.721Z,0.00
2022-08-03T03:48:32.236Z,0.00
2022-08-03T03:49:32.130Z,0.00
2022-08-03T03:50:32.067Z,0.00
2022-08-03T03:51:32.070Z,0.00
2022-08-03T03:52:32.044Z,0.00
2022-08-03T03:53:32.027Z,0.00
2022-08-03T03:54:32.036Z,0.00
2022-08-03T03:55:32.010Z,0.00
2022-08-03T03:56:32.002Z,0.00
2022-08-03T03:57:31.986Z,0.00
2022-08-03T03:58:32.002Z,0.00
2022-08-03T03:59:31.984Z,0.00
2022-08-03T04:00:31.979Z,0.00
2022-08-03T04:01:31.947Z,0.00
2022-08-03T04:02:32.000Z,0.00
2022-08-03T04:03:31.922Z,0.00
2022-08-03T04:04:31.940Z,0.00
2022-08-03T04:05:31.918Z,0.00
2022-08-03T04:06:31.900Z,0.00
2022-08-03T04:07:31.891Z,5.62
2022-08-03T04:08:31.894Z,5.62
2022-08-03T04:09:31.884Z,5.62
2022-08-03T04:10:31.856Z,5.62
2022-08-03T04:11:32.186Z,5.62
2022-08-03T04:12:31.855Z,5.62
2022-08-03T04:13:31.823Z,5.62
2022-08-03T04:14:31.835Z,5.62
2022-08-03T04:15:31.850Z,5.62
2022-08-03T04:16:31.794Z,5.62
2022-08-03T04:17:31.779Z,5.62
2022-08-03T04:18:31.815Z,11.25
2022-08-03T04:19:31.762Z,11.25
2022-08-03T04:20:31.752Z,11.25
2022-08-03T04:21:31.751Z,11.25
2022-08-03T04:22:31.731Z,11.25
2022-08-03T04:23:31.730Z,11.25
2022-08-03T04:24:31.729Z,11.25
2022-08-03T04:25:31.749Z,11.25
2022-08-03T04:26:31.693Z,11.25
2022-08-03T04:27:31.676Z,11.25
2022-08-03T04:28:32.095Z,11.25
2022-08-03T04:29:31.658Z,11.25
2022-08-03T04:30:31.663Z,11.25
2022-08-03T04:31:31.634Z,11.25
2022-08-03T04:32:31.658Z,11.25
2022-08-03T04:33:32.481Z,11.25
2022-08-03T04:34:31.614Z,16.88
2022-08-03T04:35:54.642Z,16.88
2022-08-03T04:36:31.603Z,16.88
2022-08-03T04:37:31.571Z,16.88
2022-08-03T04:38:31.635Z,16.88
2022-08-03T04:39:31.551Z,16.88
2022-08-03T04:40:31.551Z,16.88
2022-08-03T04:41:31.550Z,16.88
2022-08-03T04:42:31.535Z,16.88
2022-08-03T04:43:31.540Z,16.88
2022-08-03T04:44:31.533Z,16.88
2022-08-03T04:45:31.488Z,16.88
2022-08-03T04:46:31.489Z,16.88
2022-08-03T04:47:31.475Z,16.88
2022-08-03T04:48:31.483Z,16.88
2022-08-03T04:49:31.537Z,16.88
2022-08-03T04:50:31.450Z,16.88
2022-08-03T04:51:31.462Z,16.88
2022-08-03T04:52:31.446Z,16.88
2022-08-03T04:53:31.429Z,16.88
2022-08-03T04:54:31.461Z,16.88
2022-08-03T04:55:31.398Z,16.88
2022-08-03T04:56:31.379Z,16.88
2022-08-03T04:57:31.369Z,16.88
2022-08-03T04:58:31.384Z,22.50
2022-08-03T04:59:31.348Z,22.50
2022-08-03T05:00:31.383Z,22.50
2022-08-03T05:01:31.408Z,22.50
2022-08-03T05:02:31.469Z,22.50
2022-08-03T05:03:31.341Z,22.50
2022-08-03T05:04:31.354Z,22.50
2022-08-03T05:05:48.974Z,22.50
2022-08-03T05:06:31.334Z,22.50
2022-08-03T05:07:34.133Z,22.50
2022-08-03T05:08:31.355Z,22.50
2022-08-03T05:09:50.227Z,22.50
2022-08-03T05:10:31.251Z,22.50
2022-08-03T05:11:31.220Z,22.50
2022-08-03T05:12:32.981Z,22.50
2022-08-03T05:13:31.219Z,22.50
2022-08-03T05:14:31.205Z,22.50
2022-08-03T05:15:31.178Z,22.50
2022-08-03T05:16:31.175Z,22.50
2022-08-03T05:17:31.174Z,22.50
2022-08-03T05:18:31.199Z,22.50
2022-08-03T05:19:31.142Z,22.50
2022-08-03T05:20:31.144Z,22.50
2022-08-03T05:21:50.394Z,28.12
2022-08-03T05:22:31.129Z,28.12
2022-08-03T05:23:31.131Z,28.12
2022-08-03T05:24:31.092Z,28.12
2022-08-03T05:25:31.072Z,28.12
2022-08-03T05:26:31.094Z,28.12
2022-08-03T05:27:31.089Z,28.12
2022-08-03T05:28:31.069Z,28.12
2022-08-03T05:29:31.050Z,28.12
2022-08-03T05:30:34.116Z,28.12
2022-08-03T05:31:31.017Z,28.12
2022-08-03T05:32:31.010Z,28.12
2022-08-03T05:33:31.080Z,28.12
2022-08-03T05:34:30.999Z,28.12
2022-08-03T05:36:01.124Z,28.12
2022-08-03T05:36:30.996Z,28.12
2022-08-03T05:37:31.011Z,28.12
2022-08-03T05:38:35.134Z,28.12
2022-08-03T05:39:30.937Z,28.12
2022-08-03T05:40:30.930Z,28.12
2022-08-03T05:41:37.215Z,28.12
2022-08-03T05:42:30.915Z,28.12
2022-08-03T05:43:30.908Z,28.12
2022-08-03T05:44:30.892Z,28.12
2022-08-03T05:45:30.871Z,28.12
2022-08-03T05:46:31.090Z,28.12
2022-08-03T05:47:30.883Z,28.12
2022-08-03T05:48:30.881Z,28.12
2022-08-03T05:49:30.872Z,28.12
2022-08-03T05:50:30.827Z,28.12
2022-08-03T05:51:30.831Z,28.12
2022-08-03T05:52:30.955Z,28.12
2022-08-03T05:53:30.831Z,28.12
2022-08-03T05:54:55.404Z,28.12
2022-08-03T05:55:31.610Z,28.12
2022-08-03T05:56:30.804Z,28.12
2022-08-03T05:57:30.762Z,28.12
2022-08-03T05:58:30.804Z,28.12
2022-08-03T05:59:38.758Z,28.12
2022-08-03T06:00:30.788Z,28.12
2022-08-03T06:01:30.786Z,28.12
2022-08-03T06:02:30.707Z,28.12
2022-08-03T06:03:30.695Z,28.12
2022-08-03T06:04:31.137Z,28.12
2022-08-03T06:05:30.678Z,28.12
2022-08-03T06:06:32.394Z,28.12
2022-08-03T06:07:30.742Z,28.12
2022-08-03T06:08:30.652Z,28.12
2022-08-03T06:10:33.245Z,28.12
2022-08-03T06:10:42.326Z,28.12
2022-08-03T06:11:30.614Z,28.12
2022-08-03T06:12:30.605Z,28.12
2022-08-03T06:13:30.623Z,28.12
2022-08-03T06:14:30.606Z,28.12
2022-08-03T06:15:30.575Z,28.12
2022-08-03T06:16:30.567Z,28.12
2022-08-03T06:17:30.557Z,28.12
2022-08-03T06:18:30.570Z,28.12
2022-08-03T06:19:30.562Z,28.12
2022-08-03T06:20:30.553Z,28.12
2022-08-03T06:21:30.525Z,28.12
2022-08-03T06:22:30.504Z,28.12
2022-08-03T06:23:53.873Z,28.12
2022-08-03T06:24:30.521Z,28.12
2022-08-03T06:25:30.480Z,28.12
2022-08-03T06:26:31.038Z,33.75
2022-08-03T06:27:37.189Z,33.75
2022-08-03T06:28:52.615Z,33.75
2022-08-03T06:29:30.445Z,33.75
2022-08-03T06:30:30.415Z,33.75
2022-08-03T06:31:32.916Z,33.75
2022-08-03T06:32:30.388Z,33.75
2022-08-03T06:34:30.721Z,33.75
2022-08-03T06:34:40.135Z,33.75
2022-08-03T06:35:30.373Z,33.75
2022-08-03T06:36:30.373Z,33.75
2022-08-03T06:37:30.355Z,33.75
2022-08-03T06:38:30.343Z,33.75
2022-08-03T06:39:30.341Z,33.75
2022-08-03T06:40:30.338Z,33.75
2022-08-03T06:41:30.314Z,33.75
2022-08-03T06:42:30.295Z,33.75
2022-08-03T06:43:30.322Z,33.75
2022-08-03T06:44:30.300Z,33.75
2022-08-03T06:45:31.762Z,33.75
2022-08-03T06:46:30.291Z,33.75
2022-08-03T06:47:30.252Z,33.75
2022-08-03T06:48:30.234Z,33.75
2022-08-03T06:49:30.308Z,33.75
2022-08-03T06:50:30.222Z,33.75
2022-08-03T06:52:03.405Z,33.75
2022-08-03T06:52:37.204Z,33.75
2022-08-03T06:53:30.230Z,33.75
2022-08-03T06:54:32.840Z,33.75
2022-08-03T06:55:30.160Z,33.75
2022-08-03T06:56:30.148Z,33.75
2022-08-03T06:57:30.154Z,33.75
2022-08-03T06:58:30.126Z,33.75
2022-08-03T07:00:10.871Z,33.75
2022-08-03T07:00:30.159Z,33.75
2022-08-03T07:01:30.156Z,33.75
2022-08-03T07:02:30.085Z,33.75
2022-08-03T07:03:30.086Z,33.75
2022-08-03T07:04:30.093Z,33.75
2022-08-03T07:05:30.060Z,33.75
2022-08-03T07:06:30.097Z,33.75
2022-08-03T07:07:30.058Z,33.75
2022-08-03T07:08:33.357Z,33.75
2022-08-03T07:09:30.055Z,33.75
2022-08-03T07:10:30.029Z,33.75
2022-08-03T07:11:30.000Z,33.75
2022-08-03T07:12:29.988Z,33.75
2022-08-03T07:13:29.987Z,33.75
2022-08-03T07:14:30.011Z,33.75
2022-08-03T07:15:38.418Z,33.75
2022-08-03T07:16:29.976Z,33.75
2022-08-03T07:17:29.937Z,33.75
2022-08-03T07:18:30.206Z,33.75
2022-08-03T07:19:29.956Z,33.75
2022-08-03T07:20:32.593Z,33.75
2022-08-03T07:21:29.902Z,33.75
2022-08-03T07:22:29.886Z,33.75
2022-08-03T07:23:29.923Z,33.75
2022-08-03T07:24:29.926Z,33.75
2022-08-03T07:25:29.866Z,33.75
2022-08-03T07:26:29.896Z,33.75
2022-08-03T07:27:29.861Z,39.38
2022-08-03T07:28:29.826Z,39.38
2022-08-03T07:29:29.884Z,39.38
2022-08-03T07:30:29.817Z,39.38
2022-08-03T07:31:34.375Z,39.38
2022-08-03T07:32:29.800Z,39.38
2022-08-03T07:33:29.843Z,39.38
2022-08-03T07:34:29.777Z,39.38
2022-08-03T07:35:29.788Z,39.38
2022-08-03T07:36:29.738Z,39.38
2022-08-03T07:37:29.744Z,39.38
2022-08-03T07:38:29.765Z,39.38
2022-08-03T07:39:29.777Z,39.38
2022-08-03T07:40:30.652Z,39.38
2022-08-03T07:41:29.767Z,39.38
2022-08-03T07:42:29.742Z,39.38
2022-08-03T07:43:29.709Z,39.38
2022-08-03T07:44:29.683Z,39.38
2022-08-03T07:45:29.653Z,45.00
2022-08-03T07:46:29.754Z,45.00
2022-08-03T07:47:35.371Z,56.25
2022-08-03T07:48:29.630Z,208.12
2022-08-03T07:49:29.758Z,545.62
2022-08-03T07:50:29.598Z,793.12
2022-08-03T07:51:29.621Z,866.25
2022-08-03T07:52:29.626Z,770.62
2022-08-03T07:53:29.591Z,776.25
2022-08-03T07:54:29.583Z,826.88
2022-08-03T07:55:29.557Z,798.75
2022-08-03T07:56:29.566Z,725.62
2022-08-03T07:57:29.545Z,810.00
2022-08-03T07:58:29.523Z,905.62
2022-08-03T07:59:56.384Z,916.88
2022-08-03T08:00:32.244Z,900.00
2022-08-03T08:01:29.542Z,770.62
2022-08-03T08:02:29.491Z,753.75
2022-08-03T08:03:29.471Z,798.75
2022-08-03T08:04:29.492Z,753.75
2022-08-03T08:05:29.456Z,843.75
2022-08-03T08:06:29.434Z,984.38
2022-08-03T08:07:29.440Z,1001.25
2022-08-03T08:08:29.433Z,950.62
2022-08-03T08:09:29.427Z,1068.75
2022-08-03T08:10:29.395Z,1057.50
2022-08-03T08:11:29.398Z,995.62
2022-08-03T08:12:29.374Z,939.38
2022-08-03T08:13:29.389Z,1141.88
2022-08-03T08:14:29.381Z,1220.62
2022-08-03T08:15:29.357Z,1023.75
2022-08-03T08:16:29.344Z,1029.38
2022-08-03T08:17:29.341Z,1158.75
2022-08-03T08:18:29.331Z,1231.88
2022-08-03T08:19:29.321Z,1316.25
2022-08-03T08:20:31.397Z,1282.50
2022-08-03T08:21:53.946Z,1141.88
2022-08-03T08:22:30.446Z,1181.25
2022-08-03T08:23:38.166Z,1125.00
2022-08-03T08:24:29.281Z,990.00
2022-08-03T08:25:29.256Z,1046.25
2022-08-03T08:26:30.226Z,1023.75
2022-08-03T08:28:29.372Z,978.75
2022-08-03T08:28:36.544Z,821.25
2022-08-03T08:29:29.243Z,663.75
2022-08-03T08:30:29.278Z,382.50
2022-08-03T08:31:29.213Z,73.12
2022-08-03T08:32:29.192Z,67.50
2022-08-03T08:33:42.156Z,50.62
2022-08-03T08:34:29.189Z,50.62
2022-08-03T08:35:29.168Z,45.00
2022-08-03T08:36:29.169Z,45.00
2022-08-03T08:37:29.152Z,39.38
2022-08-03T08:38:29.133Z,39.38
2022-08-03T08:39:29.203Z,39.38
2022-08-03T08:40:29.118Z,39.38
2022-08-03T08:41:32.374Z,39.38
2022-08-03T08:42:29.101Z,39.38
2022-08-03T08:43:29.096Z,39.38
2022-08-03T08:44:29.100Z,39.38
2022-08-03T08:45:29.080Z,39.38
2022-08-03T08:46:29.065Z,39.38
2022-08-03T08:47:29.063Z,39.38
2022-08-03T08:48:29.044Z,39.38
2022-08-03T08:49:29.148Z,39.38
2022-08-03T08:50:29.074Z,39.38
2022-08-03T08:51:54.440Z,39.38
2022-08-03T08:52:31.813Z,39.38
2022-08-03T08:53:29.011Z,39.38
2022-08-03T08:54:29.015Z,39.38
2022-08-03T08:55:29.033Z,33.75
2022-08-03T08:56:28.990Z,33.75
2022-08-03T08:57:42.455Z,33.75
2022-08-03T08:58:28.951Z,33.75
2022-08-03T08:59:48.288Z,33.75
2022-08-03T09:00:28.964Z,33.75
2022-08-03T09:01:29.026Z,33.75
2022-08-03T09:02:28.906Z,33.75
2022-08-03T09:03:30.167Z,33.75
2022-08-03T09:04:28.895Z,33.75
2022-08-03T09:05:53.933Z,33.75
2022-08-03T09:06:28.872Z,33.75
2022-08-03T09:07:28.854Z,33.75
2022-08-03T09:08:28.843Z,33.75
2022-08-03T09:10:10.162Z,33.75
2022-08-03T09:10:28.826Z,33.75
2022-08-03T09:11:52.458Z,33.75
2022-08-03T09:12:41.515Z,33.75
2022-08-03T09:13:28.805Z,33.75
2022-08-03T09:14:35.228Z,33.75
2022-08-03T09:15:28.874Z,39.38
2022-08-03T09:16:28.764Z,50.62
2022-08-03T09:17:28.764Z,33.75
2022-08-03T09:18:32.218Z,33.75
2022-08-03T09:19:28.869Z,39.38
2022-08-03T09:20:28.729Z,33.75
2022-08-03T09:21:33.144Z,33.75
2022-08-03T09:22:28.702Z,33.75
2022-08-03T09:23:59.156Z,33.75
2022-08-03T09:24:41.118Z,33.75
2022-08-03T09:25:28.723Z,33.75
2022-08-03T09:26:28.667Z,33.75
2022-08-03T09:27:28.663Z,33.75
2022-08-03T09:28:59.704Z,33.75
2022-08-03T09:29:28.663Z,33.75
2022-08-03T09:30:34.459Z,33.75
2022-08-03T09:31:28.620Z,33.75
2022-08-03T09:32:28.607Z,33.75
2022-08-03T09:33:35.954Z,33.75
2022-08-03T09:34:28.617Z,33.75
2022-08-03T09:35:51.699Z,33.75
2022-08-03T09:36:28.570Z,95.62
2022-08-03T09:38:11.978Z,56.25
2022-08-03T09:38:28.570Z,247.50
2022-08-03T09:39:42.057Z,101.25
2022-08-03T09:40:28.528Z,67.50
2022-08-03T09:41:28.517Z,39.38
2022-08-03T09:42:28.510Z,78.75
2022-08-03T09:43:28.546Z,45.00
2022-08-03T09:44:28.505Z,39.38
2022-08-03T09:45:28.491Z,39.38
2022-08-03T09:46:28.462Z,185.62
2022-08-03T09:47:28.543Z,208.12
2022-08-03T09:48:28.446Z,45.00
2022-08-03T09:49:28.539Z,39.38
2022-08-03T09:50:28.424Z,33.75
2022-08-03T09:52:30.089Z,33.75
2022-08-03T09:52:51.865Z,33.75
2022-08-03T09:53:28.414Z,39.38
2022-08-03T09:54:28.403Z,33.75
2022-08-03T09:56:34.644Z,33.75
2022-08-03T09:56:41.471Z,33.75
2022-08-03T09:57:28.365Z,33.75
2022-08-03T09:58:28.338Z,33.75
2022-08-03T09:59:28.379Z,33.75
2022-08-03T10:00:28.324Z,33.75
2022-08-03T10:01:28.362Z,33.75
2022-08-03T10:02:28.311Z,33.75
2022-08-03T10:03:28.293Z,33.75
2022-08-03T10:04:28.293Z,33.75
2022-08-03T10:05:28.301Z,33.75
2022-08-03T10:06:29.099Z,33.75
2022-08-03T10:07:28.262Z,33.75
2022-08-03T10:08:28.248Z,33.75
2022-08-03T10:09:28.256Z,33.75
2022-08-03T10:10:30.916Z,33.75
2022-08-03T10:11:28.216Z,33.75
2022-08-03T10:12:28.208Z,33.75
2022-08-03T10:13:28.200Z,33.75
2022-08-03T10:14:28.218Z,33.75
2022-08-03T10:16:23.556Z,73.12
2022-08-03T10:16:29.995Z,33.75
2022-08-03T10:17:28.158Z,39.38
2022-08-03T10:18:28.161Z,33.75
2022-08-03T10:19:28.157Z,33.75
2022-08-03T10:20:28.124Z,33.75
2022-08-03T10:21:28.113Z,33.75
2022-08-03T10:22:28.109Z,33.75
2022-08-03T10:23:31.868Z,33.75
2022-08-03T10:24:28.112Z,33.75
2022-08-03T10:25:33.256Z,33.75
2022-08-03T10:26:28.071Z,33.75
2022-08-03T10:27:28.067Z,33.75
2022-08-03T10:28:28.045Z,33.75
2022-08-03T10:29:28.067Z,33.75
2022-08-03T10:30:28.028Z,39.38
2022-08-03T10:31:28.032Z,78.75
2022-08-03T10:32:28.025Z,73.12
2022-08-03T10:33:51.887Z,45.00
2022-08-03T10:34:28.012Z,28.12
2022-08-03T10:35:28.209Z,28.12
2022-08-03T10:36:28.206Z,28.12
2022-08-03T10:37:27.971Z,22.50
2022-08-03T10:38:27.949Z,28.12
2022-08-03T10:39:27.947Z,33.75
2022-08-03T10:41:27.917Z,33.75
2022-08-03T10:42:27.914Z,33.75
2022-08-03T10:43:27.898Z,33.75
2022-08-03T10:44:27.908Z,33.75
2022-08-03T10:45:27.875Z,33.75
2022-08-03T10:46:27.871Z,33.75
2022-08-03T10:47:27.855Z,33.75
2022-08-03T10:48:27.877Z,33.75
2022-08-03T10:49:34.667Z,33.75
2022-08-03T10:50:27.842Z,39.38
2022-08-03T10:51:27.809Z,39.38
2022-08-03T10:52:32.822Z,39.38
2022-08-03T10:53:27.819Z,39.38
2022-08-03T10:54:27.792Z,39.38
2022-08-03T10:55:27.776Z,39.38
2022-08-03T10:56:48.051Z,67.50
2022-08-03T10:57:27.754Z,67.50
2022-08-03T10:58:30.612Z,90.00
2022-08-03T10:59:28.283Z,45.00
2022-08-03T11:00:27.946Z,67.50
2022-08-03T11:01:27.710Z,67.50
2022-08-03T11:02:27.711Z,73.12
2022-08-03T11:03:27.705Z,45.00
2022-08-03T11:04:27.684Z,45.00
2022-08-03T11:05:27.670Z,39.38
2022-08-03T11:06:27.665Z,39.38
2022-08-03T11:07:27.662Z,39.38
2022-08-03T11:08:27.664Z,39.38
2022-08-03T11:09:27.634Z,39.38
2022-08-03T11:10:27.625Z,50.62
2022-08-03T11:11:27.609Z,45.00
2022-08-03T11:12:31.215Z,45.00
2022-08-03T11:13:27.604Z,50.62
2022-08-03T11:14:27.614Z,73.12
2022-08-03T11:15:27.565Z,73.12
2022-08-03T11:16:27.586Z,45.00
2022-08-03T11:17:27.547Z,45.00
2022-08-03T11:18:27.568Z,45.00
2022-08-03T11:19:27.687Z,45.00
2022-08-03T11:20:27.529Z,45.00
2022-08-03T11:21:30.354Z,45.00
2022-08-03T11:22:27.502Z,45.00
2022-08-03T11:24:03.941Z,45.00
2022-08-03T11:24:27.490Z,45.00
2022-08-03T11:25:53.801Z,39.38
2022-08-03T11:26:27.475Z,39.38
2022-08-03T11:27:27.451Z,39.38
2022-08-03T11:28:27.443Z,39.38
2022-08-03T11:29:27.472Z,39.38
2022-08-03T11:30:27.688Z,39.38
2022-08-03T11:31:48.732Z,39.38
2022-08-03T11:32:27.414Z,39.38
2022-08-03T11:33:27.393Z,39.38
2022-08-03T11:34:27.416Z,39.38
2022-08-03T11:35:27.371Z,39.38
2022-08-03T11:36:32.307Z,39.38
2022-08-03T11:37:31.497Z,39.38
2022-08-03T11:38:27.355Z,45.00
2022-08-03T11:39:27.364Z,45.00
2022-08-03T11:40:27.323Z,39.38
2022-08-03T11:41:27.313Z,39.38
2022-08-03T11:42:27.305Z,45.00
2022-08-03T11:43:30.842Z,45.00
2022-08-03T11:44:27.307Z,50.62
2022-08-03T11:45:27.265Z,84.38
2022-08-03T11:46:28.408Z,73.12
2022-08-03T11:47:27.245Z,50.62
2022-08-03T11:48:27.240Z,50.62
2022-08-03T11:49:27.300Z,50.62
2022-08-03T11:50:27.234Z,45.00
2022-08-03T11:51:27.203Z,45.00
2022-08-03T11:52:28.739Z,50.62
2022-08-03T11:53:27.191Z,67.50
2022-08-03T11:54:27.199Z,157.50
2022-08-03T11:55:30.559Z,208.12
2022-08-03T11:56:27.162Z,78.75
2022-08-03T11:59:18.963Z,56.25
2022-08-03T11:59:25.636Z,56.25
2022-08-03T11:59:30.645Z,56.25
2022-08-03T12:00:30.654Z,56.25
2022-08-03T12:01:30.626Z,56.25
2022-08-03T12:02:30.627Z,50.62
2022-08-03T12:03:30.658Z,50.62
2022-08-03T12:04:30.623Z,50.62
2022-08-03T12:05:30.590Z,50.62
2022-08-03T12:06:30.585Z,56.25
2022-08-03T12:08:04.210Z,56.25
2022-08-03T12:08:31.075Z,50.62
2022-08-03T12:09:30.566Z,50.62
2022-08-03T12:10:30.547Z,61.88
2022-08-03T12:11:30.525Z,50.62
2022-08-03T12:12:30.526Z,50.62
2022-08-03T12:14:44.470Z,56.25
2022-08-03T12:14:54.189Z,67.50
2022-08-03T12:15:30.484Z,56.25
2022-08-03T12:16:30.478Z,50.62
2022-08-03T12:17:30.468Z,50.62
2022-08-03T12:18:30.461Z,50.62
2022-08-03T12:19:30.458Z,45.00
2022-08-03T12:20:34.555Z,45.00
2022-08-03T12:21:30.427Z,50.62
2022-08-03T12:22:30.417Z,50.62
2022-08-03T12:23:30.885Z,50.62
2022-08-03T12:24:30.413Z,56.25
2022-08-03T12:25:38.827Z,61.88
2022-08-03T12:26:30.414Z,67.50
2022-08-03T12:27:30.364Z,67.50
2022-08-03T12:28:37.763Z,174.38
2022-08-03T12:29:30.370Z,78.75
2022-08-03T12:30:30.342Z,78.75
2022-08-03T12:31:30.323Z,73.12
2022-08-03T12:32:30.328Z,67.50
2022-08-03T12:33:30.305Z,73.12
2022-08-03T12:34:30.943Z,84.38
2022-08-03T12:35:30.284Z,140.62
2022-08-03T12:36:30.285Z,191.25
2022-08-03T12:37:30.568Z,281.25
2022-08-03T12:38:30.260Z,298.12
2022-08-03T12:39:31.507Z,331.88
2022-08-03T12:40:31.892Z,635.62
2022-08-03T12:41:30.228Z,433.12
2022-08-03T12:42:30.249Z,416.25
2022-08-03T12:43:30.204Z,382.50
2022-08-03T12:44:30.223Z,573.75
2022-08-03T12:45:30.182Z,230.62
2022-08-03T12:46:30.207Z,331.88
2022-08-03T12:47:30.164Z,545.62
2022-08-03T12:48:30.164Z,573.75
2022-08-03T12:49:30.440Z,376.88
2022-08-03T12:50:31.496Z,135.00
2022-08-03T12:51:30.126Z,112.50
2022-08-03T12:52:30.121Z,118.12
2022-08-03T12:53:30.136Z,140.62
2022-08-03T12:54:30.115Z,270.00
2022-08-03T12:55:30.088Z,253.12
2022-08-03T12:56:30.096Z,118.12
2022-08-03T12:57:30.066Z,157.50
2022-08-03T12:58:30.072Z,174.38
2022-08-03T12:59:35.063Z,140.62
2022-08-03T13:00:30.056Z,163.12